Time;durP1;ratioP1;P1;durP2;ratioP2;P2;SDS_P1;SDS_P2;PMS_P1;PMS_P2;Temp;Humidity;BMP_temperature;BMP_pressure;BME280_temperature;BME280_humidity;BME280_pressure;Samples;Min_cycle;Max_cycle;Signal;HPM_P1;HPM_P2
2023/07/13 00:01:16;;;;;;;1999.90;999.90;;;;;;;24.96;52.51;101417.81;5089620;28;20047;-72
2023/07/13 00:03:42;;;;;;;1999.90;999.90;;;;;;;24.54;53.43;101423.81;5089372;28;20044;-72
2023/07/13 00:06:08;;;;;;;1999.90;999.90;;;;;;;25.40;51.48;101414.19;5090539;28;20028;-72
2023/07/13 00:08:35;;;;;;;1999.90;999.90;;;;;;;25.08;51.81;101424.22;5089889;28;20032;-72
2023/07/13 00:11:02;;;;;;;1999.90;999.90;;;;;;;24.71;53.46;101421.97;5088911;28;20039;-71
2023/07/13 00:13:29;;;;;;;1999.90;999.90;;;;;;;24.85;53.37;101422.00;5089757;28;20328;-72
2023/07/13 00:15:55;;;;;;;1999.90;999.90;;;;;;;24.80;53.16;101413.41;5088929;28;20031;-72
2023/07/13 00:18:21;;;;;;;1999.90;999.90;;;;;;;23.82;55.23;101420.84;5089234;28;20404;-71
2023/07/13 00:20:50;;;;;;;1999.90;999.90;;;;;;;24.61;53.22;101412.78;5089416;28;20032;-72
2023/07/13 00:23:17;;;;;;;1999.90;999.90;;;;;;;24.28;54.24;101419.19;5090713;28;20024;-72
2023/07/13 00:25:42;;;;;;;1999.90;999.90;;;;;;;24.63;52.08;101413.56;5089045;28;20032;-72
2023/07/13 00:28:07;;;;;;;1999.90;999.90;;;;;;;24.93;51.78;101413.50;5089003;28;20028;-72
2023/07/13 00:30:33;;;;;;;1999.90;999.90;;;;;;;24.32;53.73;101423.38;5089162;28;20391;-71
2023/07/13 00:33:01;;;;;;;1999.90;999.90;;;;;;;25.10;50.25;101420.50;5089662;28;20499;-72
2023/07/13 00:35:27;;;;;;;1999.90;999.90;;;;;;;25.09;50.67;101429.47;5089376;28;20028;-72
2023/07/13 00:37:52;;;;;;;1999.90;999.90;;;;;;;25.03;50.49;101424.47;5089334;28;20071;-72
2023/07/13 00:40:18;;;;;;;1999.90;999.90;;;;;;;25.42;49.36;101414.97;5088884;28;20028;-72
2023/07/13 00:42:43;;;;;;;1999.90;999.90;;;;;;;25.48;49.38;101414.56;5089140;28;20036;-71
2023/07/13 00:45:12;;;;;;;1999.90;999.90;;;;;;;25.26;50.12;101419.53;5088903;28;20089;-71
2023/07/13 00:47:38;;;;;;;1999.90;999.90;;;;;;;25.94;47.33;101409.84;5088410;28;20039;-71
2023/07/13 00:50:08;;;;;;;1999.90;999.90;;;;;;;25.65;48.48;101415.28;5083312;28;20812;-72
2023/07/13 00:52:41;;;;;;;1999.90;999.90;;;;;;;25.70;48.30;101416.69;5068892;28;20036;-71
2023/07/13 00:55:09;;;;;;;1999.90;999.90;;;;;;;24.41;52.08;101422.81;5085712;28;20374;-72
2023/07/13 00:57:35;;;;;;;1999.90;999.90;;;;;;;25.19;49.65;101419.91;5085349;28;20028;-72
2023/07/13 01:00:06;;;;;;;1999.90;999.90;;;;;;;25.22;49.02;101424.19;5068510;28;20123;-71
2023/07/13 01:02:36;;;;;;;1999.90;999.90;;;;;;;24.61;50.00;101418.13;5085815;28;20032;-72
2023/07/13 01:05:08;;;;;;;1999.90;999.90;;;;;;;24.03;52.48;101423.28;5071888;28;20115;-72
2023/07/13 01:07:37;;;;;;;1999.90;999.90;;;;;;;25.54;48.07;101419.53;5069466;28;20033;-72
2023/07/13 01:10:04;;;;;;;1999.90;999.90;;;;;;;24.87;50.17;101420.09;5086039;28;20040;-72
2023/07/13 01:12:30;;;;;;;1999.90;999.90;;;;;;;25.75;47.98;101432.47;5068943;28;20024;-72
2023/07/13 01:15:01;;;;;;;1999.90;999.90;;;;;;;25.27;50.47;101421.25;5067683;28;20048;-71
2023/07/13 01:17:28;;;;;;;1999.90;999.90;;;;;;;25.70;48.95;101423.88;5085815;28;20028;-72
2023/07/13 01:19:54;;;;;;;1999.90;999.90;;;;;;;25.59;49.73;101423.72;5068670;28;20556;-71
2023/07/13 01:22:25;;;;;;;1999.90;999.90;;;;;;;25.79;48.82;101423.28;5068277;28;20082;-71
2023/07/13 01:24:50;;;;;;;1999.90;999.90;;;;;;;25.54;49.82;101427.56;5085418;28;20024;-72
2023/07/13 01:27:20;;;;;;;1999.90;999.90;;;;;;;25.67;49.92;101429.44;5070149;28;20102;-71
2023/07/13 01:29:47;;;;;;;1999.90;999.90;;;;;;;24.61;53.85;101447.50;5072346;28;20024;-72
2023/07/13 01:32:16;;;;;;;1999.90;999.90;;;;;;;25.57;51.14;101437.22;5072700;28;20017;-72
2023/07/13 01:34:42;;;;;;;1999.90;999.90;;;;;;;23.18;59.74;101442.13;5073199;28;20028;-71
2023/07/13 01:37:09;;;;;;;1999.90;999.90;;;;;;;24.09;56.01;101446.94;5072981;28;20032;-71
2023/07/13 01:39:34;;;;;;;1999.90;999.90;;;;;;;24.52;53.72;101444.44;5073332;28;20020;-72
2023/07/13 01:42:00;;;;;;;1999.90;999.90;;;;;;;25.11;51.98;101440.91;5071249;28;20032;-72
2023/07/13 01:44:26;;;;;;;1999.90;999.90;;;;;;;23.34;58.40;101446.63;5073711;28;20150;-72
2023/07/13 01:46:51;;;;;;;1999.90;999.90;;;;;;;24.85;54.13;101447.88;5071869;28;20071;-72
2023/07/13 01:49:17;;;;;;;1999.90;999.90;;;;;;;25.28;51.00;101455.06;5071641;28;20047;-72
2023/07/13 01:51:42;;;;;;;1999.90;999.90;;;;;;;25.30;50.94;101453.16;5071545;28;20111;-72
2023/07/13 01:54:08;;;;;;;1999.90;999.90;;;;;;;25.15;51.30;101450.47;5088424;28;20115;-72
2023/07/13 01:56:36;;;;;;;1999.90;999.90;;;;;;;25.98;48.50;101459.56;5071115;28;20454;-72
2023/07/13 01:59:02;;;;;;;1999.90;999.90;;;;;;;25.96;48.75;101450.78;5071754;28;20035;-72
2023/07/13 02:01:27;;;;;;;1999.90;999.90;;;;;;;25.72;49.11;101460.31;5072056;28;20046;-71
2023/07/13 02:03:53;;;;;;;1999.90;999.90;;;;;;;25.09;51.47;101460.69;5070936;28;20444;-71
2023/07/13 02:06:18;;;;;;;1999.90;999.90;;;;;;;25.92;48.66;101460.81;5071876;28;20016;-71
2023/07/13 02:08:44;;;;;;;1999.90;999.90;;;;;;;24.64;51.96;101464.25;5072314;28;20025;-71
2023/07/13 02:11:09;;;;;;;1999.90;999.90;;;;;;;25.15;50.78;101460.31;5072768;28;20078;-72
2023/07/13 02:13:35;;;;;;;1999.90;999.90;;;;;;;25.39;48.97;101458.81;5088223;28;20084;-71
2023/07/13 02:16:01;;;;;;;1999.90;999.90;;;;;;;25.26;49.12;101452.47;5071748;28;20107;-71
2023/07/13 02:18:26;;;;;;;1999.90;999.90;;;;;;;24.78;50.44;101465.22;5071080;28;20481;-71
2023/07/13 02:20:52;;;;;;;1999.90;999.90;;;;;;;25.69;47.32;101447.13;5072132;28;20024;-72
2023/07/13 02:23:18;;;;;;;1999.90;999.90;;;;;;;24.10;51.10;101459.34;5071791;28;20112;-71
2023/07/13 02:25:44;;;;;;;1999.90;999.90;;;;;;;24.14;50.68;101458.22;5070505;28;20020;-71
2023/07/13 02:28:10;;;;;;;1999.90;999.90;;;;;;;23.81;50.61;101455.59;5072890;28;20037;-71
2023/07/13 02:30:35;;;;;;;1999.90;999.90;;;;;;;23.45;51.51;101448.69;5072165;28;20074;-71
2023/07/13 02:33:01;;;;;;;1999.90;999.90;;;;;;;23.59;52.20;101450.59;5070840;28;20024;-71
2023/07/13 02:35:26;;;;;;;1999.90;999.90;;;;;;;25.56;46.77;101444.34;5071533;28;20020;-71
2023/07/13 02:37:52;;;;;;;1999.90;999.90;;;;;;;23.73;51.49;101453.38;5070872;28;20024;-71
2023/07/13 02:40:17;;;;;;;1999.90;999.90;;;;;;;23.90;51.72;101454.28;5070747;28;20016;-71
2023/07/13 02:42:43;;;;;;;1999.90;999.90;;;;;;;24.15;50.75;101454.59;5072233;28;20016;-71
2023/07/13 02:45:09;;;;;;;1999.90;999.90;;;;;;;24.73;49.31;101462.84;5070687;28;20021;-72
2023/07/13 02:47:36;;;;;;;1999.90;999.90;;;;;;;23.96;51.15;101459.25;5070728;28;20027;-72
2023/07/13 02:50:02;;;;;;;1999.90;999.90;;;;;;;24.04;51.83;101465.00;5071064;28;20040;-72
2023/07/13 02:52:28;;;;;;;1999.90;999.90;;;;;;;23.66;53.28;101457.34;5070276;28;20024;-72
2023/07/13 02:54:53;;;;;;;1999.90;999.90;;;;;;;24.12;52.71;101460.09;5068237;28;20590;-72
2023/07/13 02:57:19;;;;;;;1999.90;999.90;;;;;;;24.78;50.85;101462.56;5034702;28;20468;-72
2023/07/13 02:59:44;;;;;;;1999.90;999.90;;;;;;;23.43;54.62;101451.44;5050677;28;20107;-72
2023/07/13 03:02:10;;;;;;;1999.90;999.90;;;;;;;24.59;51.44;101460.09;5051006;28;20033;-72
2023/07/13 03:04:36;;;;;;;1999.90;999.90;;;;;;;24.88;51.28;101456.56;5033869;28;20029;-72
2023/07/13 03:07:03;;;;;;;1999.90;999.90;;;;;;;25.16;50.35;101457.53;5033460;28;20112;-72
2023/07/13 03:09:28;;;;;;;1999.90;999.90;;;;;;;23.76;54.65;101466.56;5033996;28;20587;-71
2023/07/13 03:11:55;;;;;;;1999.90;999.90;;;;;;;23.83;55.12;101462.59;5033689;28;20119;-71
2023/07/13 03:14:22;;;;;;;1999.90;999.90;;;;;;;23.17;57.93;101461.72;5032987;28;20028;-72
2023/07/13 03:16:48;;;;;;;1999.90;999.90;;;;;;;24.89;52.05;101457.41;5050121;28;20025;-72
2023/07/13 03:19:13;;;;;;;1999.90;999.90;;;;;;;25.05;51.69;101452.00;5051864;28;20085;-72
2023/07/13 03:21:39;;;;;;;1999.90;999.90;;;;;;;25.20;51.01;101453.72;5050576;28;20031;-71
2023/07/13 03:24:05;;;;;;;1999.90;999.90;;;;;;;24.95;51.43;101453.50;5051422;28;20029;-71
2023/07/13 03:26:30;;;;;;;1999.90;999.90;;;;;;;24.35;53.64;101465.94;5033675;28;20025;-71
2023/07/13 03:28:56;;;;;;;1999.90;999.90;;;;;;;23.46;58.73;101451.28;5032696;28;20036;-72
2023/07/13 03:31:26;;;;;;;1999.90;999.90;;;;;;;25.10;52.21;101452.59;5033312;28;20051;-72
2023/07/13 03:33:52;;;;;;;1999.90;999.90;;;;;;;23.95;55.76;101469.09;5033091;28;20061;-72
2023/07/13 03:36:21;;;;;;;1999.90;999.90;;;;;;;24.98;52.28;101469.38;5049504;28;20056;-72
2023/07/13 03:38:52;;;;;;;1999.90;999.90;;;;;;;25.18;51.65;101461.00;5032867;28;20393;-72
2023/07/13 03:41:19;;;;;;;1999.90;999.90;;;;;;;24.27;54.25;101473.53;5033755;28;20029;-71
2023/07/13 03:43:45;;;;;;;1999.90;999.90;;;;;;;25.09;51.75;101471.38;5032536;28;20349;-72
2023/07/13 03:46:10;;;;;;;1999.90;999.90;;;;;;;24.66;53.50;101469.50;5051372;28;20704;-72
2023/07/13 03:48:36;;;;;;;1999.90;999.90;;;;;;;25.14;51.55;101470.16;5032411;28;20033;-72
2023/07/13 03:51:01;;;;;;;1999.90;999.90;;;;;;;24.59;53.71;101468.97;5033014;28;20040;-72
2023/07/13 03:53:27;;;;;;;1999.90;999.90;;;;;;;25.12;52.37;101472.06;5033451;28;20084;-72
2023/07/13 03:55:53;;;;;;;1999.90;999.90;;;;;;;24.37;54.65;101475.59;5049396;28;20061;-71
2023/07/13 03:58:29;;;;;;;1999.90;999.90;;;;;;;24.73;54.50;101482.41;5069984;28;20476;-72
2023/07/13 04:00:55;;;;;;;1999.90;999.90;;;;;;;24.60;54.52;101485.88;5069835;28;20043;-72
2023/07/13 04:03:21;;;;;;;1999.90;999.90;;;;;;;24.46;54.98;101484.88;5069259;28;20032;-72
2023/07/13 04:05:47;;;;;;;1999.90;999.90;;;;;;;23.98;58.25;101494.75;5070755;28;20397;-72
2023/07/13 04:08:13;;;;;;;1999.90;999.90;;;;;;;24.61;56.01;101487.59;5069845;28;20022;-72
2023/07/13 04:10:38;;;;;;;1999.90;999.90;;;;;;;24.48;56.02;101490.13;5070069;28;20036;-71
2023/07/13 04:13:04;;;;;;;1999.90;999.90;;;;;;;24.24;56.87;101484.41;5070698;28;20024;-72
2023/07/13 04:15:31;;;;;;;1999.90;999.90;;;;;;;24.26;56.96;101494.03;5086472;28;20021;-72
2023/07/13 04:17:56;;;;;;;1999.90;999.90;;;;;;;24.37;58.00;101493.41;5068664;28;20028;-72
2023/07/13 04:20:23;;;;;;;1999.90;999.90;;;;;;;24.68;56.12;101495.19;5069582;28;20039;-72
2023/07/13 04:22:49;;;;;;;1999.90;999.90;;;;;;;24.70;55.58;101498.63;5068884;28;20031;-72
2023/07/13 04:25:14;;;;;;;1999.90;999.90;;;;;;;23.92;58.71;101501.28;5068727;28;20036;-72
2023/07/13 04:27:40;;;;;;;1999.90;999.90;;;;;;;24.59;57.29;101498.34;5068997;28;20028;-73
2023/07/13 04:30:07;;;;;;;1999.90;999.90;;;;;;;23.95;59.26;101508.28;5070846;28;20107;-72
2023/07/13 04:32:32;;;;;;;1999.90;999.90;;;;;;;24.07;58.59;101512.94;5085519;28;20123;-72
2023/07/13 04:34:59;;;;;;;1999.90;999.90;;;;;;;24.43;57.76;101506.44;5068818;28;20139;-73
2023/07/13 04:37:26;;;;;;;1999.90;999.90;;;;;;;24.33;57.73;101505.22;5069140;28;20036;-72
2023/07/13 04:39:51;;;;;;;1999.90;999.90;;;;;;;23.72;60.96;101507.69;5068533;28;20127;-72
2023/07/13 04:42:17;;;;;;;1999.90;999.90;;;;;;;23.35;63.14;101507.00;5085916;28;20187;-72
2023/07/13 04:44:50;;;;;;;1999.90;999.90;;;;;;;24.65;56.88;101510.56;5068336;28;20021;-72
2023/07/13 04:47:17;;;;;;;1999.90;999.90;;;;;;;24.75;56.78;101522.41;5069486;28;20036;-72
2023/07/13 04:49:42;;;;;;;1999.90;999.90;;;;;;;24.94;56.93;101526.69;5068803;28;20567;-72
2023/07/13 04:52:08;;;;;;;1999.90;999.90;;;;;;;24.92;56.90;101517.88;5068505;28;20159;-72
2023/07/13 04:54:37;;;;;;;1999.90;999.90;;;;;;;25.24;56.54;101513.25;5069254;28;20016;-72
2023/07/13 04:57:06;;;;;;;1999.90;999.90;;;;;;;25.59;54.81;101514.72;5069269;28;20492;-72
2023/07/13 04:59:32;;;;;;;1999.90;999.90;;;;;;;25.67;54.23;101509.75;5068915;28;20033;-72
2023/07/13 05:01:58;;;;;;;1999.90;999.90;;;;;;;25.43;55.27;101513.00;5085900;28;20461;-73
2023/07/13 05:04:24;;;;;;;1999.90;999.90;;;;;;;25.47;55.33;101514.53;5073050;28;20024;-72
2023/07/13 05:06:49;;;;;;;1999.90;999.90;;;;;;;26.38;51.58;101514.09;5071623;28;20066;-72
2023/07/13 05:09:14;;;;;;;1999.90;999.90;;;;;;;25.08;55.41;101524.00;5073017;28;20033;-72
2023/07/13 05:11:40;;;;;;;1999.90;999.90;;;;;;;25.25;55.88;101520.31;5072787;28;20032;-72
2023/07/13 05:14:05;;;;;;;1999.90;999.90;;;;;;;25.73;53.50;101536.09;5074198;28;20062;-72
2023/07/13 05:16:32;;;;;;;1999.90;999.90;;;;;;;25.82;53.01;101526.66;5072871;28;20040;-73
2023/07/13 05:18:57;;;;;;;1999.90;999.90;;;;;;;26.14;51.75;101532.63;5089375;28;20396;-72
2023/07/13 05:21:23;;;;;;;1999.90;999.90;;;;;;;24.90;55.65;101537.53;5072277;28;20025;-72
2023/07/13 05:23:49;;;;;;;1999.90;999.90;;;;;;;25.82;54.11;101534.69;5072091;28;20031;-72
2023/07/13 05:26:15;;;;;;;1999.90;999.90;;;;;;;25.20;56.06;101543.81;5072636;28;20035;-73
2023/07/13 05:28:40;;;;;;;1999.90;999.90;;;;;;;26.04;53.74;101537.72;5071474;28;20024;-72
2023/07/13 05:31:08;;;;;;;1999.90;999.90;;;;;;;25.86;53.42;101537.06;5072501;28;20032;-72
2023/07/13 05:33:37;;;;;;;1999.90;999.90;;;;;;;26.32;51.76;101532.38;5071984;28;20032;-72
2023/07/13 05:36:03;;;;;;;1999.90;999.90;;;;;;;25.76;52.77;101540.41;5088470;28;20392;-72
2023/07/13 05:38:28;;;;;;;1999.90;999.90;;;;;;;25.76;52.69;101552.00;5072584;28;20033;-73
2023/07/13 05:40:55;;;;;;;1999.90;999.90;;;;;;;25.85;52.37;101548.72;5072081;28;20079;-72
2023/07/13 05:43:21;;;;;;;1999.90;999.90;;;;;;;25.53;54.19;101559.63;5071803;28;20044;-72
2023/07/13 05:45:47;;;;;;;1999.90;999.90;;;;;;;24.65;57.41;101564.84;5071552;28;20042;-72
2023/07/13 05:48:13;;;;;;;1999.90;999.90;;;;;;;25.36;55.63;101560.69;5088862;28;20024;-72
2023/07/13 05:50:38;;;;;;;1999.90;999.90;;;;;;;26.36;52.31;101560.69;5073275;28;20039;-72
2023/07/13 05:53:04;;;;;;;1999.90;999.90;;;;;;;25.11;56.79;101555.06;5071636;28;20377;-72
2023/07/13 05:55:30;;;;;;;1999.90;999.90;;;;;;;25.71;54.54;101559.44;5065039;28;20048;-72
2023/07/13 05:57:57;;;;;;;1999.90;999.90;;;;;;;25.06;56.84;101574.06;5034018;28;20036;-72
2023/07/13 06:00:24;;;;;;;1999.90;999.90;;;;;;;25.42;56.07;101579.97;5034559;28;20358;-72
2023/07/13 06:02:50;;;;;;;1999.90;999.90;;;;;;;25.17;56.63;101576.97;5033376;28;20051;-73
2023/07/13 06:05:16;;;;;;;1999.90;999.90;;;;;;;26.24;53.47;101562.34;5051828;28;20504;-73
2023/07/13 06:07:42;;;;;;;1999.90;999.90;;;;;;;26.61;51.31;101564.44;5034086;28;20036;-73
2023/07/13 06:10:08;;;;;;;1999.90;999.90;;;;;;;25.33;54.77;101574.22;5033508;28;20027;-72
2023/07/13 06:12:36;;;;;;;1999.90;999.90;;;;;;;23.76;54.76;101581.31;5033830;28;20025;-73
2023/07/13 06:15:02;;;;;;;1999.90;999.90;;;;;;;23.45;53.89;101585.63;5034633;28;20025;-76
2023/07/13 06:17:28;;;;;;;1999.90;999.90;;;;;;;23.98;52.50;101585.53;5034541;28;20028;-75
2023/07/13 06:19:53;;;;;;;1999.90;999.90;;;;;;;22.87;56.92;101598.28;5052129;28;20037;-74
2023/07/13 06:22:19;;;;;;;1999.90;999.90;;;;;;;23.08;59.10;101600.81;5034652;28;20029;-74
2023/07/13 06:24:44;;;;;;;1999.90;999.90;;;;;;;22.59;63.40;101600.59;5033609;28;20017;-74
2023/07/13 06:27:10;;;;;;;1999.90;999.90;;;;;;;23.16;64.31;101601.34;5034856;28;20086;-75
2023/07/13 06:29:35;;;;;;;1999.90;999.90;;;;;;;23.27;64.36;101594.56;5034321;28;20485;-75
2023/07/13 06:32:01;;;;;;;1999.90;999.90;;;;;;;23.39;64.51;101604.59;5051638;28;20025;-75
2023/07/13 06:34:26;;;;;;;1999.90;999.90;;;;;;;23.08;63.06;101608.81;5052057;28;20039;-75
2023/07/13 06:36:52;;;;;;;1999.90;999.90;;;;;;;22.92;64.38;101603.38;5033728;28;20082;-74
2023/07/13 06:39:17;;;;;;;1999.90;999.90;;;;;;;24.03;61.90;101608.34;5050291;28;20499;-74
2023/07/13 06:41:43;;;;;;;1999.90;999.90;;;;;;;24.17;60.37;101607.59;5050143;28;20081;-74
2023/07/13 06:44:08;;;;;;;1999.90;999.90;;;;;;;23.96;57.33;101598.06;5051470;28;20029;-74
2023/07/13 06:46:37;;;;;;;1999.90;999.90;;;;;;;24.52;54.29;101612.78;5033109;28;20025;-74
2023/07/13 06:49:02;;;;;;;1999.90;999.90;;;;;;;24.70;53.90;101615.34;5051466;28;20087;-73
2023/07/13 06:51:28;;;;;;;1999.90;999.90;;;;;;;24.72;53.29;101614.31;5033206;28;20021;-73
2023/07/13 06:53:54;;;;;;;1999.90;999.90;;;;;;;26.57;49.72;101606.66;5033225;28;20021;-74
2023/07/13 06:56:19;;;;;;;1999.90;999.90;;;;;;;26.01;50.33;101609.34;5016388;28;1217487;-73
2023/07/13 06:58:45;;;;;;;1999.90;999.90;;;;;;;27.47;47.44;101617.69;5071707;28;20336;-74
2023/07/13 07:01:10;;;;;;;1999.90;999.90;;;;;;;27.54;47.34;101610.06;5071316;28;20020;-74
2023/07/13 07:03:36;;;;;;;1999.90;999.90;;;;;;;28.60;45.15;101602.47;5088006;28;20020;-73
2023/07/13 07:06:23;;;;;;;1999.90;999.90;;;;;;;28.04;44.89;101610.16;5070495;28;20032;-73
2023/07/13 07:08:49;;;;;;;1999.90;999.90;;;;;;;29.35;42.82;101613.06;5071469;28;20081;-73
2023/07/13 07:11:18;;;;;;;1999.90;999.90;;;;;;;30.81;41.14;101613.09;5072327;28;20024;-73
2023/07/13 07:13:44;;;;;;;1999.90;999.90;;;;;;;31.02;39.08;101610.41;5086714;28;20067;-73
2023/07/13 07:16:10;;;;;;;1999.90;999.90;;;;;;;32.54;37.81;101617.81;5072391;28;20024;-74
2023/07/13 07:18:36;;;;;;;1999.90;999.90;;;;;;;32.33;36.09;101619.78;5070822;28;20024;-73
2023/07/13 07:21:02;;;;;;;1999.90;999.90;;;;;;;29.83;41.44;101630.84;5087212;28;20028;-73
2023/07/13 07:23:28;;;;;;;1999.90;999.90;;;;;;;29.50;41.98;101622.63;5070914;28;20415;-74
2023/07/13 07:25:53;;;;;;;1999.90;999.90;;;;;;;28.54;43.32;101629.78;5069389;28;20051;-73
2023/07/13 07:28:19;;;;;;;1999.90;999.90;;;;;;;29.30;43.01;101631.41;5070233;28;20060;-73
2023/07/13 07:30:46;;;;;;;1999.90;999.90;;;;;;;28.41;44.64;101628.97;5070022;28;20031;-72
2023/07/13 07:33:12;;;;;;;1999.90;999.90;;;;;;;28.35;44.18;101624.91;5070586;28;20032;-73
2023/07/13 07:35:37;;;;;;;1999.90;999.90;;;;;;;27.53;45.83;101622.66;5069808;28;20469;-72
2023/07/13 07:38:03;;;;;;;1999.90;999.90;;;;;;;27.98;46.50;101621.31;5071601;28;20107;-73
2023/07/13 07:40:28;;;;;;;1999.90;999.90;;;;;;;27.47;46.22;101631.09;5070595;28;20028;-73
2023/07/13 07:42:54;;;;;;;1999.90;999.90;;;;;;;26.48;48.21;101640.31;5069069;28;20038;-73
2023/07/13 07:45:21;;;;;;;1999.90;999.90;;;;;;;27.26;47.45;101641.47;5087255;28;20102;-73
2023/07/13 07:47:47;;;;;;;1999.90;999.90;;;;;;;25.31;50.84;101648.34;5086360;28;20472;-72
2023/07/13 07:50:12;;;;;;;1999.90;999.90;;;;;;;24.78;51.48;101645.19;5069958;28;20032;-73
2023/07/13 07:52:38;;;;;;;1999.90;999.90;;;;;;;25.53;49.13;101645.28;5069531;28;20539;-72
2023/07/13 07:55:05;;;;;;;1999.90;999.90;;;;;;;24.73;50.07;101642.78;5069310;28;20048;-73
2023/07/13 07:57:31;;;;;;;1999.90;999.90;;;;;;;25.08;50.07;101657.72;5086732;28;20214;-72
2023/07/13 07:59:56;;;;;;;1999.90;999.90;;;;;;;28.01;44.90;101648.00;5086628;28;20032;-73
2023/07/13 08:02:22;;;;;;;1999.90;999.90;;;;;;;27.15;45.88;101649.38;5069151;28;20024;-73
2023/07/13 08:04:47;;;;;;;1999.90;999.90;;;;;;;26.59;47.89;101645.81;5069684;28;20116;-75
2023/07/13 08:07:13;;;;;;;1999.90;999.90;;;;;;;24.36;52.87;101658.19;5071718;28;20383;-74
2023/07/13 08:09:38;;;;;;;1999.90;999.90;;;;;;;24.92;53.07;101654.22;5069322;28;20105;-74
2023/07/13 08:12:04;;;;;;;1999.90;999.90;;;;;;;24.79;53.52;101652.25;5071257;28;20035;-73
2023/07/13 08:14:30;;;;;;;1999.90;999.90;;;;;;;27.71;47.56;101651.84;5069767;28;20016;-73
2023/07/13 08:16:55;;;;;;;1999.90;999.90;;;;;;;27.27;46.54;101659.25;5068935;28;20578;-73
2023/07/13 08:19:21;;;;;;;1999.90;999.90;;;;;;;28.32;45.01;101651.16;5069864;28;20028;-73
2023/07/13 08:21:48;;;;;;;1999.90;999.90;;;;;;;29.26;43.76;101647.78;5070281;28;20582;-73
2023/07/13 08:24:13;;;;;;;1999.90;999.90;;;;;;;28.82;42.67;101643.91;5068909;28;20028;-73
2023/07/13 08:26:39;;;;;;;1999.90;999.90;;;;;;;30.05;41.77;101649.75;5070143;28;20032;-73
2023/07/13 08:29:05;;;;;;;1999.90;999.90;;;;;;;30.27;42.13;101643.47;5069258;28;20024;-72
2023/07/13 08:31:30;;;;;;;1999.90;999.90;;;;;;;30.42;38.51;101640.53;5068567;28;20020;-72
2023/07/13 08:33:56;;;;;;;1999.90;999.90;;;;;;;32.20;37.29;101644.38;5069323;28;20547;-73
2023/07/13 08:36:21;;;;;;;1999.90;999.90;;;;;;;27.58;42.37;101658.06;5069158;28;20032;-72
2023/07/13 08:38:46;;;;;;;1999.90;999.90;;;;;;;29.99;40.14;101657.47;5069488;28;20025;-73
2023/07/13 08:41:16;;;;;;;1999.90;999.90;;;;;;;30.71;38.71;101650.78;5070658;28;20028;-73
2023/07/13 08:43:46;;;;;;;1999.90;999.90;;;;;;;28.87;42.24;101663.25;5070188;28;20025;-73
2023/07/13 08:46:19;;;;;;;1999.90;999.90;;;;;;;26.04;49.58;101674.31;5070461;28;20060;-76
2023/07/13 08:48:53;;;;;;;1999.90;999.90;;;;;;;25.05;52.45;101668.63;5069177;28;20040;-75
2023/07/13 08:51:43;;;;;;;1999.90;999.90;;;;;;;25.09;52.91;101663.94;5069114;28;20032;-74
2023/07/13 08:54:31;;;;;;;1999.90;999.90;;;;;;;25.55;52.42;101666.59;5069641;28;20029;-73
2023/07/13 08:57:00;;;;;;;1999.90;999.90;;;;;;;26.63;50.23;101662.56;5068840;28;20330;-73
2023/07/13 08:59:28;;;;;;;1999.90;999.90;;;;;;;26.60;51.38;101665.47;5068542;28;20051;-73
2023/07/13 09:02:39;;;;;;;1999.90;999.90;;;;;;;26.38;52.26;101666.84;5085177;28;20028;-73
2023/07/13 09:05:13;;;;;;;1999.90;999.90;;;;;;;25.65;52.54;101662.41;5067995;28;20035;-72
2023/07/13 09:07:44;;;;;;;1999.90;999.90;;;;;;;25.12;54.64;101669.97;5069218;28;20109;-72
2023/07/13 09:10:16;;;;;;;1999.90;999.90;;;;;;;27.16;50.73;101662.72;5068638;28;20384;-71
2023/07/13 09:13:07;;;;;;;1999.90;999.90;;;;;;;28.11;46.74;101665.19;5084586;28;20086;-71
2023/07/13 09:15:44;;;;;;;1999.90;999.90;;;;;;;28.74;45.76;101662.44;5069067;28;20032;-72
2023/07/13 09:18:24;;;;;;;1999.90;999.90;;;;;;;30.66;42.79;101669.16;5068928;28;20427;-72
2023/07/13 09:21:10;;;;;;;1999.90;999.90;;;;;;;28.30;41.17;101685.34;5067452;28;20028;-72
2023/07/13 09:23:37;;;;;;;1999.90;999.90;;;;;;;27.32;40.12;101683.97;5068217;28;20125;-72
2023/07/13 09:26:11;;;;;;;1999.90;999.90;;;;;;;27.23;41.60;101679.22;5084875;28;20032;-72
2023/07/13 09:28:45;;;;;;;1999.90;999.90;;;;;;;27.57;41.09;101677.84;5068187;28;20106;-72
2023/07/13 09:31:25;;;;;;;1999.90;999.90;;;;;;;26.29;44.21;101677.28;5068493;28;20028;-72
2023/07/13 09:33:50;;;;;;;1999.90;999.90;;;;;;;26.36;45.70;101682.13;5067495;28;20123;-72
2023/07/13 09:36:36;;;;;;;1999.90;999.90;;;;;;;25.03;48.21;101689.22;5068602;28;20016;-71
2023/07/13 09:39:02;;;;;;;1999.90;999.90;;;;;;;27.34;46.24;101691.91;5068482;28;20033;-72
2023/07/13 09:41:56;;;;;;;1999.90;999.90;;;;;;;25.37;47.72;101703.34;5068824;28;20024;-72
2023/07/13 09:44:38;;;;;;;1999.90;999.90;;;;;;;25.41;48.35;101702.22;5068323;28;20485;-72
2023/07/13 09:47:16;;;;;;;1999.90;999.90;;;;;;;26.24;46.53;101694.50;5068301;28;20047;-73
2023/07/13 09:49:43;;;;;;;1999.90;999.90;;;;;;;25.40;48.14;101711.19;5071311;28;20033;-72
2023/07/13 09:52:14;;;;;;;1999.90;999.90;;;;;;;25.66;48.88;101709.63;5073286;28;20017;-71
2023/07/13 09:54:44;;;;;;;1999.90;999.90;;;;;;;25.82;48.60;101716.75;5086953;28;20078;-72
2023/07/13 09:57:16;;;;;;;1999.90;999.90;;;;;;;26.12;48.05;101714.03;5035134;28;20025;-72
2023/07/13 09:59:46;;;;;;;1999.90;999.90;;;;;;;27.46;44.72;101709.91;5052497;28;20032;-72
2023/07/13 10:02:27;;;;;;;1999.90;999.90;;;;;;;27.59;44.45;101718.00;5034486;28;20086;-72
2023/07/13 10:05:03;;;;;;;1999.90;999.90;;;;;;;29.02;43.17;101711.50;5034605;28;20033;-72
2023/07/13 10:07:29;;;;;;;1999.90;999.90;;;;;;;28.24;43.75;101711.69;5034897;28;20108;-72
2023/07/13 10:10:03;;;;;;;1999.90;999.90;;;;;;;29.88;40.10;101712.19;5051692;28;20044;-72
2023/07/13 10:12:30;;;;;;;1999.90;999.90;;;;;;;30.32;40.18;101712.34;5034912;28;20040;-72
2023/07/13 10:15:00;;;;;;;1999.90;999.90;;;;;;;28.51;42.25;101721.44;5051071;28;20102;-72
2023/07/13 10:17:32;;;;;;;1999.90;999.90;;;;;;;26.38;46.67;101733.00;5034186;28;20029;-71
2023/07/13 10:20:04;;;;;;;1999.90;999.90;;;;;;;27.90;44.67;101731.97;5034168;28;20033;-71
2023/07/13 10:23:01;;;;;;;1999.90;999.90;;;;;;;27.48;44.96;101732.16;5033547;28;20031;-71
2023/07/13 10:25:31;;;;;;;1999.90;999.90;;;;;;;27.89;43.02;101736.50;5034587;28;20487;-71
2023/07/13 10:28:05;;;;;;;1999.90;999.90;;;;;;;28.07;43.73;101728.16;5034232;28;20043;-71
2023/07/13 10:30:39;;;;;;;1999.90;999.90;;;;;;;28.37;41.95;101719.75;5051676;28;20116;-70
2023/07/13 10:33:11;;;;;;;1999.90;999.90;;;;;;;29.44;41.05;101731.66;5034192;28;20029;-72
2023/07/13 10:35:38;;;;;;;1999.90;999.90;;;;;;;27.55;43.27;101725.41;5033843;28;20063;-70
2023/07/13 10:38:12;;;;;;;1999.90;999.90;;;;;;;29.72;40.08;101729.53;5049824;28;20021;-68
2023/07/13 10:40:58;;;;;;;1999.90;999.90;;;;;;;30.10;38.77;101728.41;5033143;28;20116;-68
2023/07/13 10:43:28;;;;;;;1999.90;999.90;;;;;;;28.48;39.98;101737.81;5051089;28;20408;-69
2023/07/13 10:45:55;;;;;;;1999.90;999.90;;;;;;;28.12;40.82;101735.91;5032725;28;20029;-68
2023/07/13 10:48:22;;;;;;;1999.90;999.90;;;;;;;27.75;40.41;101744.63;5051555;28;20029;-68
2023/07/13 10:50:52;;;;;;;1999.90;999.90;;;;;;;26.84;42.58;101742.59;5050161;28;20037;-68